Time;durP1;ratioP1;P1;durP2;ratioP2;P2;SDS_P1;SDS_P2;PMS_P1;PMS_P2;Temp;Humidity;BMP_temperature;BMP_pressure;BME280_temperature;BME280_humidity;BME280_pressure;Samples;Min_cycle;Max_cycle;Signal;HPM_P1;HPM_P2
2021/12/25 00:01:26;;;;;;;14.40;11.95;;;8.10;99.90;;;;;;4954951;28;20027;-45
2021/12/25 00:03:54;;;;;;;15.55;12.15;;;8.10;99.90;;;;;;4954588;28;20025;-47
2021/12/25 00:06:21;;;;;;;15.52;13.10;;;8.00;99.90;;;;;;4973723;28;20478;-47
2021/12/25 00:08:47;;;;;;;16.83;14.43;;;8.10;99.90;;;;;;4964639;28;20034;-45
2021/12/25 00:11:13;;;;;;;17.38;15.07;;;8.10;99.90;;;;;;4974333;28;20537;-47
2021/12/25 00:13:40;;;;;;;18.40;14.52;;;8.10;99.90;;;;;;4973182;28;20030;-46
2021/12/25 00:16:06;;;;;;;19.05;15.35;;;8.00;99.90;;;;;;4973792;28;20027;-49
2021/12/25 00:18:33;;;;;;;21.58;16.10;;;8.00;99.90;;;;;;4974114;28;20585;-48
2021/12/25 00:20:58;;;;;;;18.80;15.95;;;8.00;99.90;;;;;;4973151;28;20482;-46
2021/12/25 00:23:24;;;;;;;22.75;16.08;;;7.90;99.90;;;;;;4956363;28;20027;-48
2021/12/25 00:26:24;;;;;;;20.50;16.27;;;7.80;99.90;;;;;;4962062;28;20024;-46
2021/12/25 00:31:20;;;;;;;25.40;16.73;;;7.80;99.90;;;;;;4992715;28;20031;-46
2021/12/25 00:36:14;;;;;;;22.30;16.75;;;7.80;99.90;;;;;;4986467;28;20041;-50
2021/12/25 00:38:42;;;;;;;19.60;16.00;;;7.70;99.90;;;;;;4971352;28;20031;-48
2021/12/25 00:41:08;;;;;;;23.30;17.90;;;7.70;99.90;;;;;;4954797;28;20031;-48
2021/12/25 00:43:34;;;;;;;18.83;14.77;;;7.70;99.90;;;;;;4961644;28;20087;-46
2021/12/25 00:46:00;;;;;;;21.75;16.95;;;7.80;99.90;;;;;;4971336;28;20062;-47
2021/12/25 00:48:26;;;;;;;25.13;17.85;;;7.80;99.90;;;;;;4957445;28;20403;-49
2021/12/25 00:50:52;;;;;;;22.55;17.52;;;7.70;99.90;;;;;;4965164;28;20027;-48
2021/12/25 00:53:17;;;;;;;19.75;16.73;;;7.70;99.90;;;;;;4961609;28;20117;-46
2021/12/25 00:55:43;;;;;;;19.60;14.05;;;7.70;99.90;;;;;;4970466;28;20157;-49
2021/12/25 00:58:08;;;;;;;17.25;14.02;;;7.60;99.90;;;;;;4972352;28;20046;-47
2021/12/25 01:00:34;;;;;;;20.77;16.77;;;7.60;99.90;;;;;;4972725;28;20546;-50
2021/12/25 01:03:00;;;;;;;23.00;16.90;;;7.60;99.90;;;;;;4972831;28;20109;-50
2021/12/25 01:05:25;;;;;;;20.33;16.75;;;7.60;99.90;;;;;;4973065;28;20047;-46
2021/12/25 01:07:51;;;;;;;20.80;16.88;;;7.70;99.90;;;;;;4972921;28;20023;-47
2021/12/25 01:10:19;;;;;;;25.55;20.13;;;7.80;99.90;;;;;;4972690;28;20031;-45
2021/12/25 01:15:37;;;;;;;24.50;17.88;;;7.80;99.90;;;;;;4973016;28;20395;-47
2021/12/25 01:20:58;;;;;;;23.35;17.52;;;7.90;99.90;;;;;;4972641;28;20401;-46
2021/12/25 01:31:42;;;;;;;27.98;19.90;;;7.80;99.90;;;;;;4972646;28;20049;-47
2021/12/25 01:50:09;;;;;;;28.05;21.30;;;7.70;99.90;;;;;;4976397;28;20035;-46
2021/12/25 01:52:36;;;;;;;31.10;22.60;;;7.70;99.90;;;;;;4976234;28;20031;-47
2021/12/25 01:55:06;;;;;;;28.70;22.60;;;7.70;99.90;;;;;;4976350;28;20069;-48
2021/12/25 01:57:32;;;;;;;31.00;21.35;;;7.70;99.90;;;;;;4976332;28;20030;-48
2021/12/25 01:59:59;;;;;;;29.42;21.55;;;7.80;99.90;;;;;;4976347;28;20035;-47
2021/12/25 02:02:25;;;;;;;30.20;21.25;;;7.80;99.90;;;;;;4976182;28;20034;-45
2021/12/25 02:04:52;;;;;;;30.27;22.30;;;7.80;99.90;;;;;;4976258;28;20034;-48
2021/12/25 02:07:19;;;;;;;29.15;21.40;;;7.80;99.90;;;;;;4976308;28;20035;-51
2021/12/25 02:09:44;;;;;;;31.17;22.25;;;7.80;99.90;;;;;;4975850;28;20166;-46
2021/12/25 02:12:11;;;;;;;30.98;22.33;;;7.80;99.90;;;;;;4976112;28;20066;-49
2021/12/25 02:14:41;;;;;;;32.55;22.23;;;7.80;99.90;;;;;;4976005;28;20027;-51
2021/12/25 02:17:35;;;;;;;29.20;22.50;;;7.90;99.90;;;;;;4975832;28;20034;-46
2021/12/25 02:20:12;;;;;;;27.10;20.05;;;7.90;99.90;;;;;;4975662;28;20050;-47
2021/12/25 02:22:39;;;;;;;28.67;21.55;;;7.90;99.90;;;;;;4976350;28;20027;-46
2021/12/25 02:25:05;;;;;;;28.92;20.63;;;7.90;99.90;;;;;;4976565;28;20228;-47
2021/12/25 02:27:31;;;;;;;26.98;20.10;;;7.80;99.90;;;;;;4975614;28;20105;-47
2021/12/25 02:29:56;;;;;;;26.08;19.92;;;7.70;99.90;;;;;;4975518;28;20622;-47
2021/12/25 02:32:22;;;;;;;27.50;20.52;;;7.70;99.90;;;;;;4975698;28;20023;-47
2021/12/25 02:34:49;;;;;;;35.33;20.20;;;7.60;99.90;;;;;;4975557;28;20375;-42
2021/12/25 02:37:15;;;;;;;33.42;20.75;;;7.60;99.90;;;;;;4975683;28;20459;-45
2021/12/25 02:39:40;;;;;;;28.13;18.95;;;7.60;99.90;;;;;;4957870;28;20121;-46
2021/12/25 02:42:07;;;;;;;28.13;18.42;;;7.50;99.90;;;;;;4975765;28;20025;-46
2021/12/25 02:44:32;;;;;;;22.65;17.65;;;7.50;99.90;;;;;;4975429;28;20023;-45
2021/12/25 02:47:05;;;;;;;25.45;18.40;;;7.60;99.90;;;;;;4975381;28;20081;-42
2021/12/25 02:49:30;;;;;;;44.05;18.48;;;7.60;99.90;;;;;;4975302;28;20146;-44
2021/12/25 02:51:56;;;;;;;31.83;17.55;;;7.60;99.90;;;;;;4975412;28;20512;-47
2021/12/25 02:54:21;;;;;;;24.42;17.55;;;7.60;99.90;;;;;;4974991;28;20035;-48
2021/12/25 02:56:47;;;;;;;21.75;17.85;;;7.60;99.90;;;;;;4957703;28;20151;-41
2021/12/25 02:59:15;;;;;;;20.73;16.70;;;7.60;99.90;;;;;;4974904;28;20019;-44
2021/12/25 03:01:41;;;;;;;21.42;17.58;;;7.60;99.90;;;;;;4975223;28;20015;-46
2021/12/25 03:04:06;;;;;;;22.33;18.13;;;7.60;99.90;;;;;;4975219;28;20029;-46
2021/12/25 03:06:37;;;;;;;22.17;15.98;;;7.70;99.90;;;;;;4975031;28;20034;-43
2021/12/25 03:09:07;;;;;;;20.55;16.60;;;7.60;99.90;;;;;;4975195;28;20526;-50
2021/12/25 03:11:33;;;;;;;19.17;15.13;;;7.60;99.90;;;;;;4957660;28;20030;-44
2021/12/25 03:14:11;;;;;;;18.80;15.80;;;7.70;99.90;;;;;;4975018;28;20035;-47
2021/12/25 03:16:37;;;;;;;21.20;16.55;;;7.60;99.90;;;;;;4957599;28;20046;-48
2021/12/25 03:19:06;;;;;;;21.35;16.45;;;7.70;99.90;;;;;;4974763;28;20019;-46
2021/12/25 03:21:31;;;;;;;20.85;16.17;;;7.70;99.90;;;;;;4957757;28;20038;-41
2021/12/25 03:23:57;;;;;;;20.25;16.00;;;7.70;99.90;;;;;;4974950;28;20023;-46
2021/12/25 03:26:22;;;;;;;21.58;17.35;;;7.80;99.90;;;;;;4974802;28;20031;-48
2021/12/25 03:28:52;;;;;;;20.80;16.20;;;7.80;99.90;;;;;;4957236;28;20498;-49
2021/12/25 03:31:20;;;;;;;20.08;15.82;;;7.80;99.90;;;;;;4957183;28;20651;-45
2021/12/25 03:33:54;;;;;;;20.40;16.80;;;7.80;99.90;;;;;;4974634;28;20030;-50
2021/12/25 03:36:20;;;;;;;25.23;16.50;;;7.70;99.90;;;;;;4979239;28;20098;-47
2021/12/25 03:38:47;;;;;;;20.52;16.08;;;7.70;99.90;;;;;;4976310;28;20536;-49
2021/12/25 03:41:14;;;;;;;19.02;15.02;;;7.70;99.90;;;;;;4974395;28;20030;-49
2021/12/25 03:43:41;;;;;;;66.65;16.50;;;7.60;99.90;;;;;;4976245;28;20488;-42
2021/12/25 03:46:11;;;;;;;32.63;14.25;;;7.60;99.90;;;;;;4974478;28;20027;-50
2021/12/25 03:59:17;;;;;;;21.38;14.38;;;7.50;99.90;;;;;;4973932;28;20053;-43
2021/12/25 04:01:50;;;;;;;17.73;14.25;;;7.50;99.90;;;;;;4974170;28;20030;-49
2021/12/25 04:04:32;;;;;;;40.53;14.52;;;7.40;99.90;;;;;;4974427;28;20489;-47
2021/12/25 04:07:07;;;;;;;29.48;15.02;;;7.40;99.90;;;;;;4973987;28;20496;-44
2021/12/25 04:09:34;;;;;;;23.77;14.90;;;7.30;99.90;;;;;;4956407;28;20390;-49
2021/12/25 04:12:06;;;;;;;43.17;15.07;;;7.30;99.90;;;;;;4973784;28;20493;-45
2021/12/25 04:14:32;;;;;;;19.48;15.93;;;7.30;99.90;;;;;;4973748;28;20027;-44
2021/12/25 04:16:57;;;;;;;25.63;15.73;;;7.30;99.90;;;;;;4973448;28;20030;-42
2021/12/25 04:19:23;;;;;;;28.13;17.10;;;7.40;99.90;;;;;;4973404;28;20034;-48
2021/12/25 04:21:56;;;;;;;18.88;15.80;;;7.40;99.90;;;;;;4973663;28;20022;-47
2021/12/25 04:24:23;;;;;;;17.08;14.57;;;7.40;99.90;;;;;;4956514;28;20027;-49
2021/12/25 04:26:49;;;;;;;17.08;14.52;;;7.40;99.90;;;;;;4973617;28;20077;-47
2021/12/25 05:01:52;;;;;;;30.85;16.50;;;7.50;99.90;;;;;;4973010;28;20151;-48
2021/12/25 05:04:24;;;;;;;22.23;16.75;;;7.50;99.90;;;;;;4973141;28;20015;-45
2021/12/25 05:06:50;;;;;;;20.48;15.95;;;7.50;99.90;;;;;;4972949;28;20021;-46
2021/12/25 05:09:16;;;;;;;28.27;17.23;;;7.50;99.90;;;;;;4972621;28;20085;-45
2021/12/25 05:11:42;;;;;;;23.83;17.88;;;7.50;99.90;;;;;;4972866;28;20479;-47
2021/12/25 05:14:08;;;;;;;22.42;17.17;;;7.60;99.90;;;;;;4972937;28;20435;-46
2021/12/25 05:16:33;;;;;;;20.90;17.38;;;7.60;99.90;;;;;;4972992;28;20097;-48
2021/12/25 05:18:59;;;;;;;22.92;17.50;;;7.50;99.90;;;;;;4971756;28;20018;-44
2021/12/25 05:21:25;;;;;;;20.83;16.90;;;7.40;99.90;;;;;;4972492;28;20093;-47
2021/12/25 05:23:51;;;;;;;19.20;15.82;;;7.40;99.90;;;;;;4955307;28;20031;-48
2021/12/25 05:26:16;;;;;;;19.58;15.73;;;7.30;99.90;;;;;;4972776;28;20513;-45
2021/12/25 05:28:45;;;;;;;18.85;15.02;;;7.30;99.90;;;;;;4972534;28;20035;-42
2021/12/25 05:31:13;;;;;;;15.30;13.57;;;7.30;99.90;;;;;;4972470;28;20050;-46
2021/12/25 05:33:40;;;;;;;14.18;12.60;;;7.20;99.90;;;;;;4972711;28;20035;-50
2021/12/25 05:36:06;;;;;;;15.68;13.70;;;7.20;99.90;;;;;;4972967;28;20035;-47
2021/12/25 05:38:33;;;;;;;14.82;11.90;;;7.30;99.90;;;;;;4972750;28;20038;-46
2021/12/25 05:40:59;;;;;;;18.65;14.30;;;7.30;99.90;;;;;;4972378;28;20031;-50
2021/12/25 05:43:25;;;;;;;22.38;14.40;;;7.30;99.90;;;;;;4972482;28;20507;-46
2021/12/25 05:45:50;;;;;;;20.40;14.32;;;7.40;99.90;;;;;;4972694;28;20034;-48
2021/12/25 05:48:16;;;;;;;16.70;13.75;;;7.40;99.90;;;;;;4972372;28;20031;-44
2021/12/25 05:50:41;;;;;;;19.60;14.75;;;7.30;99.90;;;;;;4972348;28;20100;-45
2021/12/25 05:53:07;;;;;;;19.85;14.70;;;7.30;99.90;;;;;;4972354;28;20454;-47
2021/12/25 05:55:33;;;;;;;21.92;15.63;;;7.20;99.90;;;;;;4972333;28;20031;-43
2021/12/25 05:57:59;;;;;;;19.48;14.30;;;7.30;99.90;;;;;;4972294;28;20105;-44
2021/12/25 06:00:25;;;;;;;20.42;14.85;;;7.20;99.90;;;;;;4972148;28;20051;-43
2021/12/25 06:02:51;;;;;;;19.65;14.35;;;7.20;99.90;;;;;;4955122;28;20023;-39
2021/12/25 06:05:18;;;;;;;17.10;14.57;;;7.10;99.90;;;;;;4972540;28;20085;-44
2021/12/25 06:07:44;;;;;;;20.33;15.55;;;7.10;99.90;;;;;;4972273;28;20034;-47
2021/12/25 06:10:10;;;;;;;20.15;15.68;;;7.10;99.90;;;;;;4972202;28;20022;-39
2021/12/25 06:12:41;;;;;;;17.55;13.57;;;7.10;99.90;;;;;;4972364;28;20069;-45
2021/12/25 06:15:12;;;;;;;23.42;16.15;;;7.20;99.90;;;;;;4972586;28;20035;-44
2021/12/25 06:17:39;;;;;;;22.20;15.30;;;7.10;99.90;;;;;;4972340;28;20034;-45
2021/12/25 06:20:06;;;;;;;20.00;15.07;;;7.10;99.90;;;;;;4972004;28;20030;-46
2021/12/25 06:22:32;;;;;;;24.27;15.32;;;7.00;99.90;;;;;;4954941;28;20023;-45
2021/12/25 06:24:58;;;;;;;19.85;14.68;;;7.10;99.90;;;;;;4955067;28;20085;-47
2021/12/25 06:29:59;;;;;;;20.95;14.48;;;6.90;99.90;;;;;;4950401;28;20055;-44
2021/12/25 06:32:25;;;;;;;24.10;16.05;;;6.80;99.90;;;;;;4939290;29;20074;-44
2021/12/25 06:34:51;;;;;;;21.48;15.68;;;6.80;99.90;;;;;;4956477;28;20051;-47
2021/12/25 06:37:18;;;;;;;19.50;14.52;;;6.70;99.90;;;;;;4956529;29;20027;-52
2021/12/25 06:39:45;;;;;;;21.02;15.77;;;6.70;99.90;;;;;;4956048;28;20119;-46
2021/12/25 06:42:11;;;;;;;23.83;16.05;;;6.70;99.90;;;;;;4956345;29;20027;-44
2021/12/25 06:44:37;;;;;;;20.38;14.80;;;6.60;99.90;;;;;;4956216;29;20023;-47
2021/12/25 06:47:03;;;;;;;22.63;14.82;;;6.50;99.90;;;;;;4956303;29;20027;-45
2021/12/25 06:49:29;;;;;;;19.25;14.20;;;6.30;99.90;;;;;;4956002;28;20032;-44
2021/12/25 06:51:54;;;;;;;23.45;15.27;;;6.30;99.90;;;;;;4956054;28;20030;-49
2021/12/25 06:54:20;;;;;;;26.27;15.07;;;6.20;99.90;;;;;;4955635;29;20027;-47
2021/12/25 06:56:48;;;;;;;20.98;15.20;;;6.20;99.90;;;;;;4958257;29;20074;-45
2021/12/25 06:59:15;;;;;;;24.25;14.90;;;6.20;99.90;;;;;;4956946;28;20111;-42
2021/12/25 07:01:40;;;;;;;21.13;14.48;;;6.10;99.90;;;;;;4959032;29;20523;-52
2021/12/25 07:04:07;;;;;;;22.00;14.02;;;6.10;99.90;;;;;;4961777;28;20058;-42
2021/12/25 07:06:33;;;;;;;25.40;13.73;;;6.10;99.90;;;;;;4959765;29;20098;-46
2021/12/25 07:08:59;;;;;;;18.40;12.57;;;6.10;99.90;;;;;;4955792;28;20072;-49
2021/12/25 07:11:25;;;;;;;18.35;12.93;;;6.00;99.90;;;;;;4955708;29;20243;-47
2021/12/25 07:13:51;;;;;;;22.63;13.15;;;5.90;99.90;;;;;;4938256;29;20034;-45
2021/12/25 07:16:18;;;;;;;18.05;12.60;;;5.90;99.90;;;;;;4955866;28;20119;-40
2021/12/25 07:18:45;;;;;;;15.57;11.07;;;5.80;99.90;;;;;;4955651;28;20047;-42
2021/12/25 07:21:11;;;;;;;19.30;13.15;;;5.60;99.90;;;;;;4955360;29;20381;-40
2021/12/25 07:23:37;;;;;;;16.85;11.75;;;5.50;99.90;;;;;;4938507;29;20054;-42
2021/12/25 07:26:04;;;;;;;18.67;13.35;;;5.40;99.90;;;;;;4955788;29;20027;-42
2021/12/25 07:28:29;;;;;;;18.40;12.48;;;5.30;99.90;;;;;;4938205;29;20042;-43
2021/12/25 07:30:58;;;;;;;17.70;12.48;;;5.30;99.90;;;;;;4955217;29;20027;-41
2021/12/25 07:33:23;;;;;;;18.38;11.07;;;5.20;99.90;;;;;;4956172;29;20111;-42
2021/12/25 07:35:49;;;;;;;15.02;10.75;;;5.20;99.90;;;;;;4955663;28;20059;-43
2021/12/25 07:38:18;;;;;;;17.98;10.48;;;5.10;99.90;;;;;;4955426;28;20027;-45
2021/12/25 07:40:44;;;;;;;14.35;10.40;;;5.00;99.90;;;;;;4955321;29;20537;-42
2021/12/25 07:43:10;;;;;;;15.85;10.63;;;5.00;99.90;;;;;;4953703;28;20020;-43
2021/12/25 07:45:36;;;;;;;13.57;9.45;;;5.00;99.90;;;;;;4937869;29;20030;-43
2021/12/25 07:48:03;;;;;;;15.98;9.43;;;4.90;99.90;;;;;;4955766;28;20479;-43
2021/12/25 07:50:31;;;;;;;12.63;9.48;;;4.90;99.90;;;;;;4954960;28;20107;-52
2021/12/25 07:52:57;;;;;;;11.88;8.27;;;4.80;99.90;;;;;;4955046;29;20094;-42
2021/12/25 07:55:24;;;;;;;12.35;8.98;;;4.90;99.90;;;;;;4954542;29;20027;-41
2021/12/25 07:57:49;;;;;;;10.43;8.27;;;4.80;99.90;;;;;;4937657;29;20585;-45
2021/12/25 08:00:17;;;;;;;12.45;8.43;;;4.80;99.90;;;;;;4953282;29;20067;-41
2021/12/25 08:02:45;;;;;;;13.38;8.68;;;4.70;99.90;;;;;;4953731;29;20019;-43
2021/12/25 08:05:10;;;;;;;10.30;7.88;;;4.70;99.90;;;;;;4953937;29;20034;-45
2021/12/25 08:07:36;;;;;;;14.30;7.68;;;4.70;99.90;;;;;;4954231;29;20039;-43
2021/12/25 08:10:20;;;;;;;11.65;8.50;;;4.70;99.90;;;;;;4954058;29;20381;-46
2021/12/25 08:12:54;;;;;;;9.70;7.30;;;4.70;99.90;;;;;;4955094;29;20031;-42
2021/12/25 08:15:22;;;;;;;10.10;7.75;;;4.60;99.90;;;;;;4955025;29;20043;-42
2021/12/25 08:17:48;;;;;;;13.73;9.80;;;4.70;99.90;;;;;;4954130;28;20254;-43
2021/12/25 08:20:14;;;;;;;14.13;8.20;;;4.70;99.90;;;;;;4936924;29;20099;-44
2021/12/25 08:22:41;;;;;;;10.52;8.30;;;4.70;99.90;;;;;;4954187;28;20031;-39
2021/12/25 08:25:08;;;;;;;7.78;6.40;;;4.60;99.90;;;;;;4954180;28;20027;-43
2021/12/25 08:27:34;;;;;;;10.07;6.93;;;4.60;99.90;;;;;;4936933;28;20074;-42
2021/12/25 08:30:00;;;;;;;11.38;8.23;;;4.60;99.90;;;;;;4955009;28;20487;-39
2021/12/25 08:32:27;;;;;;;8.95;7.25;;;4.60;99.90;;;;;;4955804;29;20063;-41
2021/12/25 08:34:52;;;;;;;9.88;7.43;;;4.40;99.90;;;;;;4956145;29;20031;-42
2021/12/25 08:37:22;;;;;;;10.38;8.23;;;4.30;99.90;;;;;;4955076;29;20035;-42
2021/12/25 08:39:49;;;;;;;11.48;8.35;;;4.30;99.90;;;;;;4953978;29;20035;-45
2021/12/25 08:42:14;;;;;;;9.93;7.60;;;4.40;99.90;;;;;;4953839;29;20031;-40
2021/12/25 08:44:52;;;;;;;10.65;8.25;;;4.30;99.90;;;;;;4954094;28;20026;-41
2021/12/25 08:47:19;;;;;;;10.95;8.27;;;4.30;99.90;;;;;;4953987;29;20047;-41
2021/12/25 08:49:44;;;;;;;9.95;7.38;;;4.20;99.90;;;;;;4922986;29;20066;-40
2021/12/25 08:52:13;;;;;;;10.05;8.07;;;4.20;99.90;;;;;;4939150;29;20062;-45
2021/12/25 08:54:39;;;;;;;8.95;7.57;;;4.20;99.90;;;;;;4956388;28;20028;-42
2021/12/25 08:57:06;;;;;;;11.27;6.90;;;4.10;99.90;;;;;;4956326;29;20031;-41
2021/12/25 08:59:33;;;;;;;10.25;7.18;;;4.10;99.90;;;;;;4955339;29;20039;-43
2021/12/25 09:02:03;;;;;;;9.73;6.95;;;4.10;99.90;;;;;;4954512;29;20023;-41
2021/12/25 09:04:28;;;;;;;8.90;7.30;;;4.10;99.90;;;;;;4954306;29;20020;-42
2021/12/25 09:06:54;;;;;;;11.93;7.63;;;4.00;99.90;;;;;;4954057;28;20053;-40
2021/12/25 09:09:20;;;;;;;9.30;7.20;;;4.00;99.90;;;;;;4953228;29;20450;-41
2021/12/25 09:11:46;;;;;;;8.45;6.90;;;4.00;99.90;;;;;;4953642;29;20114;-43
2021/12/25 09:14:11;;;;;;;9.13;6.85;;;4.00;99.90;;;;;;4954766;28;20106;-41
2021/12/25 09:16:37;;;;;;;9.73;7.35;;;4.10;99.90;;;;;;4955487;28;20097;-43
2021/12/25 09:19:03;;;;;;;9.25;7.45;;;4.10;99.90;;;;;;4955128;28;20031;-40
2021/12/25 09:21:29;;;;;;;10.02;7.15;;;4.00;99.90;;;;;;4956346;29;20035;-43
2021/12/25 09:23:55;;;;;;;8.10;6.70;;;3.90;99.90;;;;;;4952960;29;20042;-44
2021/12/25 09:26:20;;;;;;;8.18;6.60;;;3.90;99.90;;;;;;4936917;29;20031;-40
2021/12/25 09:28:46;;;;;;;7.75;6.10;;;3.90;99.90;;;;;;4952149;28;20030;-41
2021/12/25 09:31:13;;;;;;;9.73;7.60;;;3.80;99.90;;;;;;4952146;28;20042;-40
2021/12/25 09:33:39;;;;;;;7.75;6.00;;;3.70;99.90;;;;;;4952964;28;20027;-39
2021/12/25 09:36:05;;;;;;;7.43;6.20;;;3.70;99.90;;;;;;4954062;28;20106;-44
2021/12/25 09:38:31;;;;;;;8.52;6.47;;;3.70;99.90;;;;;;4957205;28;20055;-41
2021/12/25 09:40:58;;;;;;;6.93;6.05;;;3.60;99.90;;;;;;4953423;29;20031;-44
2021/12/25 09:43:24;;;;;;;8.73;5.93;;;3.60;99.90;;;;;;4929181;29;20591;-41
2021/12/25 09:45:50;;;;;;;6.68;5.43;;;3.50;99.90;;;;;;4934066;29;20403;-40
2021/12/25 09:48:16;;;;;;;10.13;6.03;;;3.60;99.90;;;;;;4947465;28;20031;-41
2021/12/25 09:50:42;;;;;;;8.32;5.30;;;3.60;99.90;;;;;;4952437;29;20110;-40
2021/12/25 09:53:10;;;;;;;7.47;5.57;;;3.50;99.90;;;;;;4952325;29;20035;-44
2021/12/25 09:55:38;;;;;;;8.07;6.07;;;3.40;99.90;;;;;;4953392;28;20023;-41
2021/12/25 09:58:03;;;;;;;9.20;6.05;;;3.40;99.90;;;;;;4935877;29;20031;-46
2021/12/25 10:00:30;;;;;;;7.53;6.20;;;3.40;99.90;;;;;;4952903;29;20494;-42
2021/12/25 10:02:57;;;;;;;9.10;7.15;;;3.40;99.90;;;;;;4952847;29;20024;-37
2021/12/25 10:05:33;;;;;;;6.60;5.57;;;3.40;99.90;;;;;;4954309;28;20030;-41
2021/12/25 10:08:07;;;;;;;10.80;5.90;;;3.30;99.90;;;;;;4957227;28;20399;-40
2021/12/25 10:11:05;;;;;;;8.05;6.35;;;3.30;99.90;;;;;;4956325;29;20027;-40
2021/12/25 10:13:30;;;;;;;7.50;6.07;;;3.20;99.90;;;;;;4915333;29;20044;-41
2021/12/25 10:16:00;;;;;;;7.10;5.78;;;3.20;99.90;;;;;;4938395;29;20404;-41
2021/12/25 10:18:31;;;;;;;8.23;6.28;;;3.20;99.90;;;;;;4949821;28;20483;-41
2021/12/25 10:21:18;;;;;;;8.65;6.10;;;3.20;99.90;;;;;;4956462;29;20396;-41
2021/12/25 10:23:43;;;;;;;7.30;6.18;;;3.20;99.90;;;;;;4953998;29;20015;-43
2021/12/25 10:26:09;;;;;;;6.40;5.22;;;3.20;99.90;;;;;;4957638;28;20023;-42
2021/12/25 10:28:37;;;;;;;9.43;6.60;;;3.20;99.90;;;;;;4958730;28;20525;-41
2021/12/25 10:31:06;;;;;;;7.68;5.80;;;3.20;99.90;;;;;;4956356;29;20069;-53
2021/12/25 10:33:41;;;;;;;9.30;6.18;;;3.20;99.90;;;;;;4954090;28;20031;-43
2021/12/25 10:36:33;;;;;;;6.22;5.63;;;3.20;99.90;;;;;;4956422;28;20066;-39
2021/12/25 10:39:11;;;;;;;6.50;5.07;;;3.20;99.90;;;;;;4933419;29;20415;-42
2021/12/25 10:41:41;;;;;;;7.60;5.68;;;3.20;99.90;;;;;;4954656;29;20510;-42
2021/12/25 10:44:20;;;;;;;7.03;5.40;;;3.20;99.90;;;;;;4955145;29;20082;-44
2021/12/25 10:47:03;;;;;;;10.70;6.28;;;3.20;99.90;;;;;;4944591;28;20020;-47
2021/12/25 10:49:38;;;;;;;8.73;6.15;;;3.20;99.90;;;;;;4937196;29;20031;-45
2021/12/25 10:52:13;;;;;;;8.30;5.53;;;3.10;99.90;;;;;;4955694;29;20646;-47
2021/12/25 10:54:59;;;;;;;;;;;3.00;99.90;;;;;;4955936;28;20028;-48
2021/12/25 10:57:39;;;;;;;9.00;6.72;;;3.10;99.90;;;;;;4952696;29;20338;-48
2021/12/25 11:00:31;;;;;;;6.57;5.65;;;3.20;99.90;;;;;;4933228;29;20034;-43
2021/12/25 11:03:02;;;;;;;7.78;4.95;;;3.20;99.90;;;;;;4950951;29;20055;-41
2021/12/25 11:05:37;;;;;;;6.78;5.22;;;3.00;99.90;;;;;;4936481;29;20027;-48
2021/12/25 11:08:05;;;;;;;9.63;6.28;;;2.90;99.90;;;;;;4952645;29;20031;-50
2021/12/25 11:10:39;;;;;;;7.30;5.57;;;2.90;99.90;;;;;;4955378;29;20031;-45
2021/12/25 11:13:41;;;;;;;8.75;5.63;;;3.00;99.90;;;;;;4954460;29;20046;-48
2021/12/25 11:16:21;;;;;;;6.88;6.10;;;2.90;99.90;;;;;;4952569;28;20134;-55
2021/12/25 11:21:54;;;;;;;7.72;6.00;;;3.00;99.90;;;;;;4955229;29;20039;-50
2021/12/25 11:24:25;;;;;;;7.43;6.07;;;3.10;99.90;;;;;;4956755;29;20027;-46
2021/12/25 11:26:57;;;;;;;12.45;5.75;;;3.10;99.90;;;;;;4957085;28;20284;-48
2021/12/25 11:29:27;;;;;;;8.90;6.35;;;3.00;99.90;;;;;;4954854;28;20606;-45
2021/12/25 11:31:56;;;;;;;7.30;5.95;;;2.90;99.90;;;;;;4955397;29;20028;-46
2021/12/25 11:34:23;;;;;;;8.90;6.25;;;2.90;99.90;;;;;;4953518;29;20027;-47
2021/12/25 11:36:50;;;;;;;7.72;6.00;;;2.90;99.90;;;;;;4955243;29;20042;-44
2021/12/25 11:39:19;;;;;;;6.43;5.30;;;2.80;99.90;;;;;;4937764;29;20038;-47
2021/12/25 11:41:47;;;;;;;7.43;6.13;;;2.70;99.90;;;;;;4954630;29;20087;-48
2021/12/25 11:44:30;;;;;;;6.72;5.93;;;2.70;99.90;;;;;;4954649;29;20034;-48
2021/12/25 11:46:55;;;;;;;6.60;5.78;;;2.80;99.90;;;;;;4954810;29;20030;-46
2021/12/25 11:49:21;;;;;;;7.38;5.68;;;2.70;99.90;;;;;;4937033;29;20510;-45
2021/12/25 11:51:47;;;;;;;7.90;5.63;;;2.50;99.90;;;;;;4953918;29;20114;-49
2021/12/25 11:57:32;;;;;;;6.72;5.45;;;2.40;99.90;;;;;;4954332;29;20070;-42
2021/12/25 11:59:52;;;;;;;7.78;6.50;;;2.40;99.90;;;;;;4953700;29;20045;-43
2021/12/25 12:02:39;;;;;;;6.75;5.72;;;2.40;99.90;;;;;;4936123;29;20082;-51
2021/12/25 12:05:19;;;;;;;6.15;5.35;;;2.40;99.90;;;;;;4953555;29;20106;-52
2021/12/25 12:08:05;;;;;;;6.72;5.88;;;2.30;99.90;;;;;;4936917;29;20027;-51
2021/12/25 12:10:46;;;;;;;7.55;6.43;;;2.30;99.90;;;;;;4951818;29;20027;-49
2021/12/25 12:13:32;;;;;;;9.57;6.07;;;2.20;99.90;;;;;;4954044;28;20090;-50
2021/12/25 12:16:02;;;;;;;7.20;6.25;;;2.10;99.90;;;;;;4953522;29;20043;-52
2021/12/25 12:18:30;;;;;;;8.77;6.53;;;2.10;99.90;;;;;;4953868;28;20023;-54
2021/12/25 12:21:33;;;;;;;8.00;6.95;;;2.10;99.90;;;;;;4953683;28;20054;-46
2021/12/25 12:24:26;;;;;;;11.50;7.70;;;2.20;99.90;;;;;;4953725;28;20513;-52
2021/12/25 12:26:53;;;;;;;7.85;6.45;;;2.20;99.90;;;;;;4935062;29;20184;-49
2021/12/25 12:32:43;;;;;;;7.47;5.47;;;2.10;99.90;;;;;;4970765;28;20054;-55
2021/12/25 12:35:29;;;;;;;8.13;6.53;;;2.10;99.90;;;;;;4947660;28;20046;-50
2021/12/25 12:38:15;;;;;;;8.60;6.82;;;2.10;99.90;;;;;;4956244;28;20068;-51
2021/12/25 12:40:40;;;;;;;7.90;6.25;;;2.00;99.90;;;;;;4965645;28;20043;-42
2021/12/25 12:43:06;;;;;;;10.07;7.15;;;2.10;99.90;;;;;;4936714;29;20403;-49
2021/12/25 12:45:35;;;;;;;7.18;6.45;;;2.10;99.90;;;;;;4953898;29;20550;-48
2021/12/25 12:48:14;;;;;;;7.78;6.25;;;2.00;99.90;;;;;;4937122;29;20043;-55
2021/12/25 12:50:44;;;;;;;8.98;8.07;;;2.00;99.90;;;;;;4936001;29;20396;-55
2021/12/25 12:53:10;;;;;;;10.98;7.28;;;2.00;99.90;;;;;;4953729;28;20019;-53
2021/12/25 12:55:45;;;;;;;7.43;6.70;;;2.00;99.90;;;;;;4925861;29;20034;-50
2021/12/25 12:58:22;;;;;;;11.25;7.95;;;2.00;99.90;;;;;;4949950;29;20066;-49
2021/12/25 13:01:00;;;;;;;7.57;6.78;;;2.00;99.90;;;;;;4951945;29;20514;-56
2021/12/25 13:03:28;;;;;;;11.10;8.02;;;2.00;99.90;;;;;;4936194;29;20023;-56
2021/12/25 13:06:07;;;;;;;8.52;7.65;;;2.10;99.90;;;;;;4955955;28;20073;-56
2021/12/25 13:08:35;;;;;;;9.27;8.05;;;2.00;99.90;;;;;;4952778;28;20054;-56
2021/12/25 13:11:17;;;;;;;8.85;7.20;;;2.00;99.90;;;;;;4954234;28;20023;-54
2021/12/25 13:13:52;;;;;;;10.27;7.13;;;1.90;99.90;;;;;;4936103;29;20031;-55
2021/12/25 13:16:19;;;;;;;8.48;7.55;;;2.00;99.90;;;;;;4954650;29;20475;-54
2021/12/25 13:18:51;;;;;;;7.97;7.18;;;1.90;99.90;;;;;;4954155;29;20176;-50
2021/12/25 13:21:22;;;;;;;9.13;8.13;;;1.90;99.90;;;;;;4950665;28;20107;-51
2021/12/25 13:23:56;;;;;;;11.23;7.50;;;1.90;99.90;;;;;;4936776;29;20055;-54
2021/12/25 13:26:33;;;;;;;8.77;7.43;;;1.90;99.90;;;;;;4936854;29;20031;-54
2021/12/25 13:29:11;;;;;;;10.70;7.95;;;1.90;99.90;;;;;;4936827;29;20024;-53
2021/12/25 13:31:40;;;;;;;9.30;7.93;;;1.80;99.90;;;;;;4954599;29;20063;-49
2021/12/25 13:34:15;;;;;;;10.70;8.15;;;1.90;99.90;;;;;;4954456;28;20028;-51
2021/12/25 13:36:48;;;;;;;11.05;7.93;;;1.90;99.90;;;;;;4954463;28;20039;-56
2021/12/25 13:39:16;;;;;;;7.95;7.15;;;1.90;99.90;;;;;;4952946;29;20039;-49
2021/12/25 13:41:49;;;;;;;8.82;7.78;;;1.90;99.90;;;;;;4947321;29;20035;-46
2021/12/25 13:44:23;;;;;;;9.38;8.05;;;1.80;99.90;;;;;;4934688;29;20031;-50
2021/12/25 13:46:56;;;;;;;9.90;7.20;;;1.80;99.90;;;;;;4934020;29;20126;-53
2021/12/25 13:49:38;;;;;;;10.05;8.18;;;1.80;99.90;;;;;;4933567;29;20122;-54
2021/12/25 13:52:11;;;;;;;8.38;7.32;;;1.80;99.90;;;;;;4916656;29;20024;-56
2021/12/25 13:54:43;;;;;;;10.98;8.80;;;1.80;99.90;;;;;;4933482;29;20027;-52
2021/12/25 13:57:10;;;;;;;11.15;8.48;;;1.70;99.90;;;;;;4934337;29;20032;-50
2021/12/25 13:59:36;;;;;;;11.65;8.77;;;1.70;99.90;;;;;;4933593;29;20435;-51
2021/12/25 14:02:09;;;;;;;9.48;8.48;;;1.80;99.90;;;;;;4916218;29;20168;-45
2021/12/25 14:04:38;;;;;;;10.05;7.38;;;1.70;99.90;;;;;;4933365;29;20031;-50
2021/12/25 14:07:04;;;;;;;11.18;8.40;;;1.70;99.90;;;;;;4933943;29;20051;-52
2021/12/25 14:09:29;;;;;;;11.60;7.97;;;1.70;99.90;;;;;;4916529;29;20054;-47
2021/12/25 14:11:57;;;;;;;9.88;7.70;;;1.70;99.90;;;;;;4933652;29;20040;-47
2021/12/25 14:14:25;;;;;;;10.18;9.07;;;1.70;99.90;;;;;;4933466;29;20036;-56
2021/12/25 14:16:51;;;;;;;10.32;8.25;;;1.70;99.90;;;;;;4933968;29;20063;-43
2021/12/25 14:19:17;;;;;;;14.95;10.70;;;1.70;99.90;;;;;;4949942;29;20035;-50
2021/12/25 14:21:59;;;;;;;11.13;9.80;;;1.60;99.90;;;;;;4951902;28;20170;-48
2021/12/25 14:24:24;;;;;;;15.68;11.63;;;1.60;99.90;;;;;;4951175;29;20099;-51
2021/12/25 14:27:04;;;;;;;14.18;11.13;;;1.50;99.90;;;;;;4952737;28;20039;-47